Pagina principale
METAR-TAF:

METAR-TAF

Aeroporti :

Aeroporto di Latina

Latina, Italia

latitudine: 41-33N, longitudine: 012-54E, altezza: 25 m

Osservazione

Il bollettino è stato emesso 37 minuti fa, alle 16:55 UTC
Temperature 10°C
Umidità 93%
Pressione 1020 hPa
Visibilità 10 km o più
Nubi sparse ad un'altezza di 2000 ft
Nuvoloso ad un'altezza di 4000 ft
pioggia debole

METAR: LIRL 201655Z /////KT 9999 -RA SCT020 BKN040 10/09 Q1020

Ora: 18:32 (17:32 UTC)

Previsione

Il bollettino è stato emesso 3 ore e 32 minuti fa, alle 14:00 UTC
Previsione valida dal 20 alle 15 UTC al 20 alle 24 UTC
Vento 5 kt da direzioni variabili
Visibilità 10 km o più
Nubi sparse ad un'altezza di 2000 ft
Nubi sparse ad un'altezza di 4000 ft
Temporaneamente
dal 20 alle 15 UTC al 20 alle 18 UTC
Visibilità: 5000 m
Nuvoloso ad un'altezza di 3000 ft
pioggia

TAF: LIRL 201400Z 2015/2024 VRB05KT 9999 SCT020 SCT040 TEMPO 2015/2018 5000 RA BKN030

Osservazioni e previsioni meteorologiche di più di 4000 aeroporti (messaggi METAR e TAF).

Le stazioni disponibili sono rappresentate dai dischi gialli e rossi sulla carta.

Puntare il mouse per vedere il nome della stazione.

Clicca sopra per visualizzare le osservazioni e previsioni meteorologiche.

Per cambiare la mappa : fare clic sui pulsanti verdi con una croce nera per ingrandire, il pulsante verde con un trattino per diminuire, o sulla freccia verde per le mappe adiacenti.


METAR-TAF: